Time;durP1;ratioP1;P1;durP2;ratioP2;P2;SDS_P1;SDS_P2;PMS_P1;PMS_P2;Temp;Humidity;BMP_temperature;BMP_pressure;BME280_temperature;BME280_humidity;BME280_pressure;Samples;Min_cycle;Max_cycle;Signal;HPM_P1;HPM_P2
2021/03/31 00:00:30;;;;;;;15.90;9.40;;;10.00;63.30;;;;;;5020215;28;20058;-90
2021/03/31 00:03:07;;;;;;;19.15;10.10;;;9.90;62.10;;;;;;5019862;28;20056;-90
2021/03/31 00:05:36;;;;;;;18.88;9.93;;;9.80;62.80;;;;;;5014959;28;20486;-88
2021/03/31 00:08:07;;;;;;;19.13;9.35;;;9.70;63.80;;;;;;5005028;28;20042;-90
2021/03/31 00:10:42;;;;;;;21.38;8.98;;;9.60;64.80;;;;;;5025346;28;20081;-89
2021/03/31 00:13:11;;;;;;;18.73;9.90;;;9.50;66.30;;;;;;5021301;28;20308;-88
2021/03/31 00:15:41;;;;;;;18.38;9.13;;;9.40;66.40;;;;;;5018586;28;20061;-89
2021/03/31 00:18:11;;;;;;;17.95;10.15;;;9.40;68.30;;;;;;5004261;28;20060;-88
2021/03/31 00:20:39;;;;;;;19.52;9.52;;;9.30;67.20;;;;;;5004573;28;20077;-89
2021/03/31 00:23:09;;;;;;;18.58;9.85;;;9.20;68.90;;;;;;5002793;28;20382;-88
2021/03/31 00:25:39;;;;;;;15.50;9.32;;;9.20;71.30;;;;;;5001949;28;20118;-88
2021/03/31 00:28:08;;;;;;;17.90;9.55;;;9.10;72.00;;;;;;5001777;28;20062;-89
2021/03/31 00:30:36;;;;;;;19.45;9.68;;;9.10;74.00;;;;;;5003790;28;20129;-90
2021/03/31 00:33:09;;;;;;;20.65;9.60;;;9.00;74.70;;;;;;5024262;28;20113;-89
2021/03/31 00:35:37;;;;;;;20.73;10.25;;;9.00;74.10;;;;;;4997371;28;20060;-88
2021/03/31 00:38:07;;;;;;;21.92;9.38;;;8.90;75.30;;;;;;5025645;28;20137;-89
2021/03/31 00:40:49;;;;;;;17.80;9.82;;;8.90;78.40;;;;;;5006967;28;20045;-88
2021/03/31 00:43:21;;;;;;;19.58;10.60;;;8.80;80.40;;;;;;5003075;28;20057;-90
2021/03/31 00:45:50;;;;;;;21.13;10.05;;;8.70;78.40;;;;;;5018622;28;20104;-88
2021/03/31 00:48:20;;;;;;;22.33;10.82;;;8.70;80.00;;;;;;5001545;28;20068;-89
2021/03/31 00:51:11;;;;;;;18.00;9.65;;;8.70;79.20;;;;;;5018499;28;20125;-87
2021/03/31 00:53:42;;;;;;;20.35;9.90;;;8.70;85.50;;;;;;4990756;28;20064;-90
2021/03/31 00:56:24;;;;;;;17.48;10.73;;;8.70;91.40;;;;;;5017739;28;20105;-91
2021/03/31 00:58:52;;;;;;;18.75;10.75;;;8.60;90.10;;;;;;4998971;28;20264;-90
2021/03/31 01:01:20;;;;;;;18.38;10.65;;;8.50;91.40;;;;;;4981786;28;20061;-90
2021/03/31 01:03:47;;;;;;;18.00;10.27;;;8.50;91.70;;;;;;5002793;28;20145;-88
2021/03/31 01:06:21;;;;;;;18.95;9.98;;;8.40;94.10;;;;;;5007371;28;20050;-91
2021/03/31 01:08:47;;;;;;;19.40;9.73;;;8.40;97.60;;;;;;4981742;28;20117;-87
2021/03/31 01:11:25;;;;;;;19.98;9.60;;;8.30;98.20;;;;;;4996236;28;20046;-89
2021/03/31 01:14:36;;;;;;;19.73;9.63;;;8.30;96.70;;;;;;5022378;28;20057;-91
2021/03/31 01:17:14;;;;;;;20.05;9.80;;;8.30;96.50;;;;;;4982878;28;20041;-90
2021/03/31 01:20:06;;;;;;;16.30;9.13;;;8.20;97.60;;;;;;4996602;28;20412;-88
2021/03/31 01:23:10;;;;;;;14.07;8.20;;;8.10;95.70;;;;;;5015508;28;20069;-88
2021/03/31 01:25:47;;;;;;;18.50;10.10;;;8.10;97.40;;;;;;5016726;28;20092;-88
2021/03/31 01:28:43;;;;;;;21.95;8.48;;;8.00;99.90;;;;;;5015801;28;20120;-90
2021/03/31 01:31:41;;;;;;;13.55;8.85;;;8.00;98.10;;;;;;5016156;28;20065;-89
2021/03/31 01:34:34;;;;;;;11.60;7.60;;;8.00;99.20;;;;;;5014839;28;20120;-88
2021/03/31 01:37:12;;;;;;;18.60;9.02;;;8.00;97.00;;;;;;5013374;28;20092;-89
2021/03/31 01:39:45;;;;;;;13.98;8.23;;;8.00;98.00;;;;;;4984280;28;20038;-89
2021/03/31 01:42:16;;;;;;;24.92;9.05;;;8.00;99.90;;;;;;4998940;28;20141;-90
2021/03/31 01:44:44;;;;;;;17.98;9.18;;;7.90;99.40;;;;;;4998581;28;20053;-88
2021/03/31 01:47:16;;;;;;;13.68;8.85;;;7.90;99.90;;;;;;5004836;28;20050;-90
2021/03/31 01:49:54;;;;;;;16.52;9.27;;;7.80;99.90;;;;;;5010133;28;20133;-89
2021/03/31 01:52:23;;;;;;;17.52;9.07;;;7.70;99.90;;;;;;4994221;28;20105;-88
2021/03/31 01:54:53;;;;;;;15.43;9.18;;;7.70;99.90;;;;;;5006258;28;20141;-88
2021/03/31 01:57:33;;;;;;;15.07;8.10;;;7.60;99.90;;;;;;4982915;28;20149;-87
2021/03/31 02:00:06;;;;;;;13.80;7.65;;;7.60;99.90;;;;;;5006417;28;20080;-87
2021/03/31 02:02:33;;;;;;;12.57;6.82;;;7.60;99.90;;;;;;5028769;28;20061;-89
2021/03/31 02:05:14;;;;;;;12.55;7.35;;;7.60;99.90;;;;;;5017440;28;20098;-89
2021/03/31 02:07:42;;;;;;;16.10;7.03;;;7.60;99.90;;;;;;5026713;28;20121;-90
2021/03/31 02:10:16;;;;;;;12.65;7.78;;;7.60;99.90;;;;;;5006604;28;20132;-89
2021/03/31 02:12:52;;;;;;;13.98;7.78;;;7.50;99.90;;;;;;5002544;28;20052;-89
2021/03/31 02:15:23;;;;;;;15.85;8.20;;;7.40;99.90;;;;;;4989404;28;20399;-90
2021/03/31 02:17:51;;;;;;;14.57;8.38;;;7.30;99.90;;;;;;5000580;28;20114;-87
2021/03/31 02:20:21;;;;;;;19.23;8.15;;;7.30;99.90;;;;;;5017521;28;20053;-88
2021/03/31 02:22:52;;;;;;;15.20;7.80;;;7.20;99.90;;;;;;5017364;28;20508;-88
2021/03/31 02:25:44;;;;;;;17.95;9.20;;;7.20;99.90;;;;;;5001840;28;20065;-89
2021/03/31 02:28:15;;;;;;;18.70;9.70;;;7.20;99.90;;;;;;4967769;28;20072;-88
2021/03/31 02:30:44;;;;;;;16.27;8.38;;;7.20;99.90;;;;;;4969380;28;20062;-89
2021/03/31 02:33:12;;;;;;;14.88;8.38;;;7.20;99.90;;;;;;5001152;28;20069;-90
2021/03/31 02:35:42;;;;;;;14.23;7.95;;;7.20;99.90;;;;;;5017830;28;20076;-88
2021/03/31 02:38:18;;;;;;;16.40;9.07;;;7.20;99.90;;;;;;5020752;28;20049;-91
2021/03/31 02:40:49;;;;;;;16.63;7.93;;;7.20;99.90;;;;;;5001325;28;20058;-88
2021/03/31 02:43:18;;;;;;;13.38;8.32;;;7.20;99.90;;;;;;5027577;28;20128;-89
2021/03/31 02:45:56;;;;;;;14.90;7.72;;;7.20;99.90;;;;;;5012240;28;20072;-88
2021/03/31 02:48:26;;;;;;;15.30;7.43;;;7.10;99.90;;;;;;5014634;28;20057;-89
2021/03/31 02:50:59;;;;;;;13.45;7.20;;;7.10;99.90;;;;;;5031710;28;20037;-89
2021/03/31 02:53:29;;;;;;;12.05;7.68;;;7.00;99.90;;;;;;5031119;28;20064;-88
2021/03/31 02:55:58;;;;;;;13.00;7.13;;;6.90;99.90;;;;;;5025593;28;20046;-89
2021/03/31 02:58:40;;;;;;;11.20;7.07;;;6.90;99.90;;;;;;5017339;28;20060;-87
2021/03/31 03:01:12;;;;;;;14.07;8.20;;;6.80;99.90;;;;;;4999945;28;20046;-89
2021/03/31 03:03:44;;;;;;;16.75;8.07;;;6.70;99.90;;;;;;5016025;28;20045;-88
2021/03/31 03:06:14;;;;;;;16.20;8.00;;;6.70;99.90;;;;;;4999686;28;20128;-89
2021/03/31 03:08:48;;;;;;;14.20;8.02;;;6.60;99.90;;;;;;4970802;28;20064;-89
2021/03/31 03:11:18;;;;;;;24.50;8.82;;;6.70;99.90;;;;;;5017296;28;20383;-88
2021/03/31 03:13:48;;;;;;;14.98;8.52;;;6.70;99.90;;;;;;5016755;28;20117;-89
2021/03/31 03:16:20;;;;;;;19.58;8.52;;;6.70;99.90;;;;;;5014920;28;20372;-88
2021/03/31 03:18:48;;;;;;;16.73;8.23;;;6.70;99.90;;;;;;5002045;28;20446;-89
2021/03/31 03:21:21;;;;;;;15.48;8.38;;;6.70;99.90;;;;;;5011171;28;20309;-90
2021/03/31 03:23:50;;;;;;;18.52;9.07;;;6.80;99.90;;;;;;5030048;28;20105;-89
2021/03/31 03:26:20;;;;;;;15.18;8.52;;;6.80;99.90;;;;;;5012037;28;20084;-89
2021/03/31 03:28:59;;;;;;;15.63;9.13;;;6.80;99.90;;;;;;5010938;28;20062;-89
2021/03/31 03:31:33;;;;;;;15.63;8.02;;;6.80;99.90;;;;;;5020111;28;20053;-88
2021/03/31 03:34:09;;;;;;;14.90;8.68;;;6.80;99.90;;;;;;5018056;28;20049;-88
2021/03/31 03:36:49;;;;;;;16.10;8.63;;;6.80;99.90;;;;;;5001064;28;20141;-88
2021/03/31 03:39:21;;;;;;;19.17;8.05;;;6.90;99.90;;;;;;5000058;28;20103;-88
2021/03/31 03:41:52;;;;;;;14.63;7.97;;;6.80;99.90;;;;;;4999024;28;20110;-91
2021/03/31 03:44:22;;;;;;;13.80;8.00;;;6.80;99.90;;;;;;4999705;28;20042;-89
2021/03/31 03:46:54;;;;;;;17.42;9.07;;;6.70;99.90;;;;;;4980300;28;20077;-89
2021/03/31 03:49:22;;;;;;;15.63;8.68;;;6.70;99.90;;;;;;4994097;28;20045;-87
2021/03/31 03:51:52;;;;;;;17.25;8.63;;;6.80;99.90;;;;;;5001800;28;20050;-90
2021/03/31 03:54:19;;;;;;;19.45;8.95;;;6.90;99.90;;;;;;5002587;28;20061;-87
2021/03/31 03:56:51;;;;;;;14.30;7.90;;;7.00;99.90;;;;;;5017907;28;20068;-88
2021/03/31 03:59:19;;;;;;;23.50;10.45;;;7.10;99.90;;;;;;4999467;28;20053;-89
2021/03/31 04:01:46;;;;;;;17.23;8.38;;;7.10;99.90;;;;;;4988881;28;20046;-90
2021/03/31 04:04:13;;;;;;;16.90;8.90;;;7.20;99.90;;;;;;5016707;28;20050;-89
2021/03/31 04:06:45;;;;;;;18.65;8.07;;;7.20;99.90;;;;;;5019448;28;20056;-88
2021/03/31 04:09:13;;;;;;;13.90;8.30;;;7.10;99.90;;;;;;5016166;28;20042;-88
2021/03/31 04:11:43;;;;;;;17.83;8.20;;;7.20;99.90;;;;;;5021136;28;20060;-87
2021/03/31 04:14:11;;;;;;;13.45;7.80;;;7.10;99.90;;;;;;4991224;28;20053;-88
2021/03/31 04:16:44;;;;;;;14.88;8.07;;;7.10;99.90;;;;;;5008773;28;20069;-87
2021/03/31 04:19:18;;;;;;;15.52;7.97;;;7.00;99.90;;;;;;5006391;28;20057;-88
2021/03/31 04:21:45;;;;;;;12.90;7.80;;;6.90;99.90;;;;;;5001940;28;20041;-89
2021/03/31 04:24:16;;;;;;;14.88;7.80;;;6.90;99.90;;;;;;5019647;28;20046;-91
2021/03/31 04:26:46;;;;;;;14.75;8.85;;;6.70;99.90;;;;;;5018362;28;20054;-88
2021/03/31 04:29:14;;;;;;;13.75;8.07;;;6.70;99.90;;;;;;5018529;28;20050;-88
2021/03/31 04:31:43;;;;;;;18.48;8.77;;;6.60;99.90;;;;;;4995585;28;20177;-89
2021/03/31 04:34:12;;;;;;;18.33;8.95;;;6.50;99.90;;;;;;5019224;28;20422;-88
2021/03/31 04:36:44;;;;;;;17.88;8.27;;;6.40;99.90;;;;;;5018329;28;20415;-90
2021/03/31 04:39:12;;;;;;;18.73;9.50;;;6.50;99.90;;;;;;5001784;28;20127;-90
2021/03/31 04:41:39;;;;;;;16.33;8.07;;;6.60;99.90;;;;;;5018492;28;20099;-89
2021/03/31 04:44:11;;;;;;;14.05;8.82;;;6.60;99.90;;;;;;4999246;28;20046;-89
2021/03/31 04:46:37;;;;;;;18.17;8.65;;;6.80;99.90;;;;;;5013767;28;20096;-90
2021/03/31 04:49:07;;;;;;;17.95;9.63;;;6.80;99.90;;;;;;5000232;28;20054;-89
2021/03/31 04:51:39;;;;;;;16.25;9.07;;;6.90;99.90;;;;;;5002506;28;20046;-89
2021/03/31 04:54:06;;;;;;;18.55;9.50;;;7.10;99.90;;;;;;5004875;28;20068;-89
2021/03/31 04:56:34;;;;;;;17.45;9.52;;;7.20;99.90;;;;;;5019488;28;20092;-87
2021/03/31 04:59:06;;;;;;;19.10;8.48;;;7.30;99.90;;;;;;5022012;28;20107;-90
2021/03/31 05:01:36;;;;;;;19.20;8.57;;;7.30;99.90;;;;;;5002002;28;20107;-89
2021/03/31 05:04:07;;;;;;;13.45;8.05;;;7.30;99.90;;;;;;4990959;28;20446;-87
2021/03/31 05:06:38;;;;;;;15.13;8.90;;;7.40;99.90;;;;;;5017838;28;20106;-88
2021/03/31 05:09:11;;;;;;;17.65;8.43;;;7.40;99.90;;;;;;4986586;28;20046;-88
2021/03/31 05:11:41;;;;;;;17.40;8.25;;;7.40;99.90;;;;;;4999941;28;20042;-88
2021/03/31 05:14:12;;;;;;;17.27;8.77;;;7.30;99.90;;;;;;4999873;28;20046;-88
2021/03/31 05:16:38;;;;;;;16.95;9.27;;;7.10;99.90;;;;;;5008828;28;20148;-89
2021/03/31 05:19:11;;;;;;;16.60;8.93;;;7.10;99.90;;;;;;4999839;28;20165;-90
2021/03/31 05:21:39;;;;;;;18.02;8.48;;;7.10;99.90;;;;;;4976165;28;20059;-87
2021/03/31 05:24:06;;;;;;;13.98;8.55;;;7.20;99.90;;;;;;5000483;28;20050;-89
2021/03/31 05:26:39;;;;;;;18.98;8.50;;;7.30;99.90;;;;;;5017724;28;20128;-88
2021/03/31 05:29:11;;;;;;;15.18;8.82;;;7.30;99.90;;;;;;5000954;28;20053;-90
2021/03/31 05:31:43;;;;;;;20.15;8.95;;;7.40;99.90;;;;;;5029767;28;20104;-89
2021/03/31 05:34:17;;;;;;;21.60;8.88;;;7.30;99.90;;;;;;5030423;28;20054;-88
2021/03/31 05:36:45;;;;;;;19.88;8.10;;;7.30;99.90;;;;;;5011795;28;20056;-87
2021/03/31 05:39:22;;;;;;;;;;;;;;;;;;;;;
2021/03/31 05:42:08;;;;;;;16.48;7.78;;;7.40;99.90;;;;;;5005188;28;20042;-88
2021/03/31 05:44:36;;;;;;;15.95;8.07;;;7.50;99.90;;;;;;5016557;28;20042;-86
2021/03/31 05:47:09;;;;;;;17.20;8.40;;;7.50;99.90;;;;;;5009363;28;20119;-85
2021/03/31 05:49:38;;;;;;;16.63;9.02;;;7.60;99.90;;;;;;5025631;28;20050;-84
2021/03/31 05:52:07;;;;;;;15.93;8.43;;;7.70;99.90;;;;;;5028354;28;20080;-88
2021/03/31 05:54:35;;;;;;;19.48;8.32;;;7.70;99.90;;;;;;5013631;28;20042;-88
2021/03/31 05:57:10;;;;;;;17.67;8.32;;;7.80;99.90;;;;;;5010801;28;20473;-87
2021/03/31 05:59:38;;;;;;;14.57;8.13;;;7.90;99.90;;;;;;5015354;28;20056;-87
2021/03/31 06:02:11;;;;;;;13.88;8.13;;;8.00;99.90;;;;;;5019731;28;20050;-88
2021/03/31 06:04:40;;;;;;;14.02;7.97;;;8.00;99.90;;;;;;5018042;28;20087;-88
2021/03/31 06:07:07;;;;;;;16.17;7.82;;;7.90;99.90;;;;;;5007550;28;20093;-88
2021/03/31 06:09:34;;;;;;;13.98;7.88;;;7.80;99.90;;;;;;4990022;28;20454;-88
2021/03/31 06:12:07;;;;;;;17.67;7.80;;;7.80;99.90;;;;;;5017572;28;20132;-91
2021/03/31 06:14:37;;;;;;;16.48;7.65;;;7.90;99.90;;;;;;4964955;28;20077;-84
2021/03/31 06:17:13;;;;;;;16.83;7.78;;;8.00;99.90;;;;;;5013777;28;20057;-87
2021/03/31 06:19:44;;;;;;;15.98;7.60;;;8.20;99.90;;;;;;5016804;28;20086;-88
2021/03/31 06:22:31;;;;;;;7.32;5.72;;;8.50;99.90;;;;;;4999148;28;20061;-87
2021/03/31 06:25:08;;;;;;;15.07;7.80;;;8.70;99.90;;;;;;5011880;28;20133;-84
2021/03/31 06:27:39;;;;;;;15.07;7.32;;;9.00;99.90;;;;;;5015553;28;20058;-90
2021/03/31 06:30:22;;;;;;;15.82;7.25;;;9.40;99.80;;;;;;4986877;28;20076;-90
2021/03/31 06:33:03;;;;;;;;;;;;;;;;;;;;;
2021/03/31 06:35:30;;;;;;;16.13;7.80;;;10.50;90.60;;;;;;5016504;28;20463;-89
2021/03/31 06:38:14;;;;;;;14.95;7.75;;;11.00;85.80;;;;;;4996699;28;20045;-91
2021/03/31 06:40:58;;;;;;;13.48;7.13;;;11.50;82.00;;;;;;4996685;28;20065;-90
2021/03/31 06:43:32;;;;;;;12.30;7.10;;;12.00;78.70;;;;;;5016320;28;20080;-90
2021/03/31 06:46:12;;;;;;;17.08;6.57;;;12.30;74.30;;;;;;5000567;28;20115;-93
2021/03/31 06:48:43;;;;;;;12.07;6.88;;;12.60;72.60;;;;;;5000540;28;20133;-89
2021/03/31 06:51:26;;;;;;;15.75;7.60;;;12.80;69.70;;;;;;5000414;28;20132;-90
2021/03/31 06:53:53;;;;;;;12.55;6.97;;;13.00;68.10;;;;;;5015886;28;20492;-91
2021/03/31 06:56:29;;;;;;;13.80;7.10;;;13.10;67.90;;;;;;4987365;28;20042;-91
2021/03/31 06:59:16;;;;;;;12.65;6.93;;;13.00;68.10;;;;;;4996221;28;20038;-89
2021/03/31 07:01:45;;;;;;;11.32;6.90;;;13.10;67.60;;;;;;5002728;28;20049;-87
2021/03/31 07:04:19;;;;;;;11.55;6.57;;;13.40;66.30;;;;;;5025107;28;20050;-89
2021/03/31 07:07:09;;;;;;;;;;;;;;;;;;;;;
2021/03/31 07:09:44;;;;;;;15.23;6.90;;;13.90;62.80;;;;;;5018966;28;20049;-90
2021/03/31 07:12:43;;;;;;;12.88;6.45;;;13.90;62.30;;;;;;5016255;28;20057;-90
2021/03/31 07:15:25;;;;;;;16.40;7.35;;;13.80;63.00;;;;;;5000986;28;20070;-89
2021/03/31 07:18:12;;;;;;;16.35;6.57;;;13.80;63.40;;;;;;5002440;28;20390;-89
2021/03/31 07:20:38;;;;;;;11.25;6.35;;;13.80;63.30;;;;;;5002456;28;20872;-90
2021/03/31 07:23:08;;;;;;;17.77;7.32;;;14.00;63.40;;;;;;5018293;28;20431;-91
2021/03/31 07:25:41;;;;;;;11.07;7.07;;;14.10;62.40;;;;;;4997812;28;20128;-91
2021/03/31 07:28:24;;;;;;;14.32;7.22;;;14.20;62.90;;;;;;4999962;28;20054;-90
2021/03/31 07:30:52;;;;;;;14.98;7.20;;;14.50;61.40;;;;;;5016343;28;20046;-91
2021/03/31 07:33:36;;;;;;;13.50;7.55;;;14.90;60.40;;;;;;5009273;28;20049;-90
2021/03/31 07:36:16;;;;;;;15.70;7.53;;;15.20;58.80;;;;;;5008509;28;20054;-92
2021/03/31 07:38:44;;;;;;;11.10;7.18;;;15.30;57.90;;;;;;4999479;28;20081;-90
2021/03/31 07:41:12;;;;;;;16.75;7.90;;;15.30;56.70;;;;;;5012380;28;20073;-89
2021/03/31 07:43:43;;;;;;;14.70;7.65;;;15.30;56.90;;;;;;5030958;28;20085;-89
2021/03/31 07:46:16;;;;;;;20.77;8.57;;;15.40;56.70;;;;;;5040984;28;20057;-89
2021/03/31 07:48:47;;;;;;;18.23;8.05;;;15.60;56.80;;;;;;4999457;28;20420;-89
2021/03/31 07:51:27;;;;;;;18.33;7.68;;;15.90;56.20;;;;;;5005309;28;20116;-91
2021/03/31 07:54:00;;;;;;;12.45;7.95;;;16.30;54.50;;;;;;4998428;28;20105;-90
2021/03/31 07:56:30;;;;;;;12.63;8.23;;;16.70;52.90;;;;;;5007161;28;20343;-88
2021/03/31 07:59:05;;;;;;;15.50;7.90;;;17.10;51.50;;;;;;5018962;28;20056;-89
2021/03/31 08:01:40;;;;;;;15.10;7.90;;;17.30;50.00;;;;;;5023796;28;20045;-89
2021/03/31 08:04:11;;;;;;;19.55;9.18;;;17.50;51.00;;;;;;5016198;28;20068;-91
2021/03/31 08:06:40;;;;;;;15.88;7.97;;;17.90;49.50;;;;;;5004318;28;20049;-91
2021/03/31 08:09:43;;;;;;;16.35;7.72;;;18.30;48.80;;;;;;5000963;28;20054;-90
2021/03/31 08:12:36;;;;;;;13.52;8.55;;;18.80;47.80;;;;;;4990368;28;20054;-90
2021/03/31 08:15:11;;;;;;;15.43;8.57;;;19.40;46.20;;;;;;5015030;28;20135;-90
2021/03/31 08:17:41;;;;;;;16.63;8.52;;;19.60;45.00;;;;;;4996896;28;20042;-90
2021/03/31 08:20:20;;;;;;;15.40;8.45;;;19.90;43.70;;;;;;5003485;28;20072;-90
2021/03/31 08:22:47;;;;;;;15.30;8.55;;;20.20;43.90;;;;;;5005519;28;20092;-91
2021/03/31 08:25:27;;;;;;;14.02;7.82;;;20.60;42.70;;;;;;5004553;28;20053;-91
2021/03/31 08:28:10;;;;;;;19.60;8.98;;;20.70;41.50;;;;;;4998321;28;20061;-89
2021/03/31 08:30:39;;;;;;;17.98;8.55;;;21.00;40.80;;;;;;5004749;28;20041;-89
2021/03/31 08:33:07;;;;;;;12.00;8.18;;;21.30;40.10;;;;;;5011573;28;20041;-92
2021/03/31 08:35:36;;;;;;;13.45;8.38;;;21.90;40.00;;;;;;5019622;28;20117;-92
2021/03/31 08:38:25;;;;;;;13.18;8.80;;;22.20;39.10;;;;;;5038893;28;20109;-91
2021/03/31 08:40:52;;;;;;;14.13;8.65;;;22.60;38.40;;;;;;5001939;28;20088;-90
2021/03/31 08:47:47;;;;;;;;;;;;;;;;;;;;;
2021/03/31 08:50:46;;;;;;;12.40;8.90;;;24.30;35.50;;;;;;4853671;29;20062;-90
2021/03/31 08:53:24;;;;;;;16.92;8.73;;;24.50;33.50;;;;;;4836540;29;20067;-91
2021/03/31 08:55:51;;;;;;;10.75;7.90;;;24.60;33.60;;;;;;4850129;29;20152;-89
2021/03/31 08:58:39;;;;;;;12.80;8.23;;;24.30;33.60;;;;;;4845055;29;20066;-91
2021/03/31 09:02:19;;;;;;;13.32;7.75;;;24.30;33.70;;;;;;4812992;29;20058;-90
2021/03/31 09:05:03;;;;;;;12.00;8.10;;;24.40;34.10;;;;;;4826434;29;20046;-91
2021/03/31 09:07:54;;;;;;;18.00;8.38;;;24.90;33.20;;;;;;4843793;29;20090;-92
2021/03/31 09:13:42;;;;;;;12.10;7.20;;;25.80;33.70;;;;;;5510630;23;20048;-87
2021/03/31 09:16:18;;;;;;;15.40;7.07;;;26.30;31.70;;;;;;4997130;28;20451;-85
2021/03/31 09:19:08;;;;;;;;;;;;;;;;;;;;;
2021/03/31 09:22:14;;;;;;;12.13;7.53;;;26.90;29.50;;;;;;5013666;28;20037;-87
2021/03/31 09:24:50;;;;;;;8.88;6.65;;;26.70;31.60;;;;;;4997883;28;20133;-86
2021/03/31 09:27:21;;;;;;;13.95;7.57;;;27.20;29.00;;;;;;4996044;28;20133;-87
2021/03/31 09:29:56;;;;;;;9.63;7.25;;;27.20;28.50;;;;;;5011073;28;20054;-90
2021/03/31 09:32:31;;;;;;;10.90;7.00;;;27.30;29.30;;;;;;4996478;28;20057;-87
2021/03/31 09:35:45;;;;;;;10.30;6.70;;;27.20;29.10;;;;;;5007460;28;20129;-87
2021/03/31 09:38:23;;;;;;;13.88;6.90;;;27.30;28.20;;;;;;4996122;28;20073;-87
2021/03/31 09:41:21;;;;;;;11.10;6.45;;;28.30;27.90;;;;;;4981250;28;20116;-85
2021/03/31 09:43:57;;;;;;;9.27;6.22;;;28.40;27.40;;;;;;5014735;28;20046;-88
2021/03/31 09:46:47;;;;;;;11.77;5.85;;;28.50;27.30;;;;;;5011432;28;20049;-86
2021/03/31 09:49:19;;;;;;;11.25;6.15;;;28.90;27.30;;;;;;4998973;28;20057;-83
2021/03/31 09:51:47;;;;;;;10.07;6.15;;;29.30;28.20;;;;;;5009029;28;20077;-83
2021/03/31 09:54:17;;;;;;;9.57;6.28;;;29.70;26.70;;;;;;4995780;28;20124;-84
2021/03/31 09:56:44;;;;;;;9.77;5.78;;;29.70;25.10;;;;;;5012402;28;20056;-85
2021/03/31 09:59:17;;;;;;;12.15;5.82;;;29.40;25.60;;;;;;5012760;28;20110;-83
2021/03/31 10:01:43;;;;;;;8.90;6.18;;;29.50;25.40;;;;;;5013119;28;20050;-83
2021/03/31 10:04:16;;;;;;;10.38;5.72;;;30.00;25.40;;;;;;5006105;28;20104;-85
2021/03/31 10:07:26;;;;;;;7.75;5.38;;;30.00;24.70;;;;;;5004525;28;20097;-84
2021/03/31 10:10:14;;;;;;;8.25;5.80;;;30.00;25.00;;;;;;4984331;28;20046;-83
2021/03/31 10:12:41;;;;;;;8.05;5.60;;;30.50;25.00;;;;;;4993803;28;20060;-82
2021/03/31 10:15:11;;;;;;;12.38;6.05;;;30.70;23.40;;;;;;4973228;28;20047;-83
2021/03/31 10:17:38;;;;;;;8.98;5.07;;;30.90;23.40;;;;;;4992349;28;20220;-83
2021/03/31 10:20:17;;;;;;;9.30;5.65;;;31.20;23.90;;;;;;4992503;28;20046;-83
2021/03/31 10:22:52;;;;;;;7.18;5.53;;;30.60;22.70;;;;;;4992444;28;20042;-84
2021/03/31 10:25:33;;;;;;;6.18;5.30;;;30.90;23.20;;;;;;4992788;28;20066;-83
2021/03/31 10:28:34;;;;;;;7.93;5.18;;;31.00;24.80;;;;;;4988624;28;20117;-83
2021/03/31 10:31:46;;;;;;;9.60;5.20;;;31.40;23.70;;;;;;4990238;28;20061;-83
2021/03/31 10:34:21;;;;;;;10.07;5.03;;;31.80;22.20;;;;;;4991016;28;20349;-83
2021/03/31 10:37:55;;;;;;;;;;;;;;;;;;;;;
2021/03/31 10:41:14;;;;;;;5.85;4.32;;;31.30;22.50;;;;;;4863477;29;20069;-82
2021/03/31 10:47:45;;;;;;;9.52;4.80;;;32.50;22.10;;;;;;4856292;29;20049;-82
2021/03/31 10:50:37;;;;;;;7.90;3.60;;;32.20;20.60;;;;;;4857948;29;20114;-84
2021/03/31 10:53:31;;;;;;;7.20;4.50;;;32.10;20.70;;;;;;4859427;29;20448;-82
2021/03/31 10:56:00;;;;;;;4.70;4.10;;;32.10;21.90;;;;;;4909735;29;20422;-82
2021/03/31 10:58:31;;;;;;;6.20;4.60;;;32.00;21.40;;;;;;4926841;29;20047;-83
2021/03/31 11:01:00;;;;;;;8.10;5.38;;;31.40;20.90;;;;;;4935868;29;20066;-81
2021/03/31 11:03:31;;;;;;;7.22;5.22;;;30.90;21.50;;;;;;4931938;29;20056;-82
2021/03/31 11:05:57;;;;;;;7.40;5.00;;;30.90;22.10;;;;;;4932226;29;20063;-81
2021/03/31 11:08:27;;;;;;;10.80;4.93;;;30.60;22.70;;;;;;4915206;29;20060;-81
2021/03/31 11:11:00;;;;;;;8.73;5.10;;;30.60;21.90;;;;;;4934079;28;20050;-81
2021/03/31 11:13:29;;;;;;;14.05;5.35;;;30.60;22.90;;;;;;4971489;28;20121;-83
2021/03/31 11:15:56;;;;;;;10.95;4.97;;;30.40;23.00;;;;;;4995066;28;20058;-84
2021/03/31 11:26:55;;;;;;;7.25;4.60;;;32.10;21.80;;;;;;5015744;28;20108;-82
2021/03/31 11:29:22;;;;;;;10.95;4.55;;;33.50;22.10;;;;;;5009129;28;20153;-82
2021/03/31 11:31:51;;;;;;;9.00;4.57;;;34.00;22.40;;;;;;5002492;28;20061;-83
2021/03/31 11:34:17;;;;;;;5.47;4.55;;;34.80;20.90;;;;;;4983721;28;20503;-84
2021/03/31 11:36:46;;;;;;;9.70;4.50;;;34.40;18.90;;;;;;4983521;28;20038;-84
2021/03/31 11:39:16;;;;;;;7.88;4.50;;;33.90;20.90;;;;;;5026116;28;20061;-84
2021/03/31 11:41:43;;;;;;;5.15;4.50;;;33.50;21.20;;;;;;5005261;28;20037;-84
2021/03/31 11:44:09;;;;;;;7.90;4.47;;;33.40;22.40;;;;;;5015003;28;20057;-83
2021/03/31 11:46:36;;;;;;;5.53;3.97;;;33.70;21.90;;;;;;5007627;28;20084;-83
2021/03/31 11:49:03;;;;;;;5.78;4.10;;;34.60;21.60;;;;;;5009773;28;20399;-83
2021/03/31 11:51:31;;;;;;;9.48;3.80;;;34.30;21.60;;;;;;4998389;28;20054;-83
2021/03/31 11:54:00;;;;;;;5.57;3.97;;;33.70;20.50;;;;;;5016063;28;20054;-83
2021/03/31 11:56:29;;;;;;;7.13;3.80;;;33.00;21.30;;;;;;4998931;28;20068;-83
2021/03/31 11:58:56;;;;;;;5.28;3.97;;;32.80;19.70;;;;;;5008899;28;20050;-82
2021/03/31 12:01:24;;;;;;;8.52;4.13;;;33.70;20.60;;;;;;5006659;28;20447;-83
2021/03/31 12:03:53;;;;;;;6.07;3.85;;;34.80;19.00;;;;;;4997423;28;20100;-84
2021/03/31 12:06:22;;;;;;;7.03;4.45;;;35.90;17.20;;;;;;5012651;28;20439;-83
2021/03/31 12:08:53;;;;;;;8.52;4.60;;;35.80;17.50;;;;;;5017236;28;20386;-82
2021/03/31 12:11:22;;;;;;;9.07;4.03;;;35.00;18.80;;;;;;5012594;28;20423;-83
2021/03/31 12:13:51;;;;;;;6.40;4.63;;;34.80;19.20;;;;;;5015026;28;20107;-83
2021/03/31 12:16:18;;;;;;;6.60;3.45;;;34.80;19.30;;;;;;5016383;28;20456;-84
2021/03/31 12:18:49;;;;;;;8.07;4.47;;;34.50;18.20;;;;;;5014739;28;20057;-83
2021/03/31 12:21:31;;;;;;;;;;;;;;;;;;;;;
2021/03/31 12:24:24;;;;;;;6.15;3.80;;;35.70;16.50;;;;;;4998581;28;20054;-85
2021/03/31 12:27:34;;;;;;;6.38;3.20;;;36.40;16.90;;;;;;5004536;28;20065;-85
2021/03/31 12:30:30;;;;;;;9.15;3.53;;;37.10;16.40;;;;;;4999679;28;20046;-84
2021/03/31 12:33:01;;;;;;;3.63;2.90;;;37.90;17.30;;;;;;5010502;28;20123;-84
2021/03/31 12:35:29;;;;;;;7.95;3.78;;;37.80;15.60;;;;;;5014476;28;20068;-84
2021/03/31 12:37:56;;;;;;;9.32;5.68;;;38.00;15.60;;;;;;4993287;28;20041;-86
2021/03/31 12:40:23;;;;;;;7.82;5.68;;;37.10;18.60;;;;;;5015067;28;20089;-84
2021/03/31 12:42:49;;;;;;;9.23;5.15;;;36.20;20.40;;;;;;5018949;28;20053;-82
2021/03/31 12:45:16;;;;;;;6.25;4.90;;;36.80;17.80;;;;;;5013104;28;20447;-82
2021/03/31 12:47:43;;;;;;;11.98;5.45;;;37.30;19.30;;;;;;5013028;28;20064;-81
2021/03/31 12:50:15;;;;;;;8.13;5.80;;;37.90;18.10;;;;;;5018374;28;20050;-82
2021/03/31 12:55:27;;;;;;;13.30;5.88;;;38.00;17.30;;;;;;5015111;28;20061;-81
2021/03/31 12:58:16;;;;;;;10.38;5.80;;;37.20;17.10;;;;;;5000885;28;20547;-82
2021/03/31 13:00:44;;;;;;;8.68;4.07;;;36.50;18.00;;;;;;5011267;28;20309;-83
2021/03/31 13:03:30;;;;;;;7.20;3.58;;;36.10;18.70;;;;;;5010471;28;20443;-83
2021/03/31 13:05:59;;;;;;;7.90;4.18;;;35.40;19.40;;;;;;5009630;28;20046;-84
2021/03/31 13:08:51;;;;;;;9.30;4.90;;;35.10;19.60;;;;;;5010949;28;20049;-84
2021/03/31 13:11:40;;;;;;;6.55;4.53;;;34.50;19.50;;;;;;5011100;28;20081;-83
2021/03/31 13:26:11;;;;;;;10.65;6.18;;;33.60;20.30;;;;;;5012707;28;20135;-83
2021/03/31 13:31:32;;;;;;;11.18;5.85;;;34.00;20.60;;;;;;5013522;28;20052;-83
2021/03/31 13:34:23;;;;;;;9.15;5.38;;;33.60;20.70;;;;;;5013537;28;20154;-82
2021/03/31 13:37:13;;;;;;;;;;;32.50;21.70;;;;;;5013928;28;20076;-83
2021/03/31 13:39:44;;;;;;;12.82;5.50;;;32.90;20.70;;;;;;5008532;28;19992;-81
2021/03/31 13:42:15;;;;;;;8.13;5.90;;;32.80;20.90;;;;;;5001687;28;20456;-81
2021/03/31 13:44:42;;;;;;;11.63;6.03;;;32.70;22.00;;;;;;5010545;28;20049;-81
2021/03/31 13:47:11;;;;;;;10.43;6.47;;;32.90;21.80;;;;;;5013585;28;20045;-86
2021/03/31 13:49:47;;;;;;;12.57;6.67;;;33.70;20.10;;;;;;4996891;28;20061;-85
2021/03/31 13:54:53;;;;;;;16.02;8.32;;;34.00;22.10;;;;;;5000130;28;20116;-84
2021/03/31 13:57:23;;;;;;;12.50;8.57;;;34.10;21.90;;;;;;5001438;28;20054;-85
2021/03/31 13:59:53;;;;;;;15.88;8.00;;;33.80;21.60;;;;;;5000290;28;20050;-81
2021/03/31 14:02:21;;;;;;;11.02;8.05;;;34.30;21.00;;;;;;4998761;28;20049;-84
2021/03/31 14:05:16;;;;;;;8.85;7.35;;;34.40;22.70;;;;;;4995321;28;20061;-83
2021/03/31 14:08:14;;;;;;;10.63;7.65;;;34.30;22.10;;;;;;5011681;28;20050;-83
2021/03/31 14:11:17;;;;;;;11.80;7.43;;;34.50;20.60;;;;;;4983572;28;20136;-84
2021/03/31 14:13:52;;;;;;;12.35;7.72;;;33.90;20.70;;;;;;4994317;28;20065;-84